HOURLY OBS INDEX

021

Northern Agricultural - Lower North

CLARE HIGH SCHOOL

Site: 021131
Alt: 395.0m
2km NW of CLARE


  Time     Wind        Temp  DP   Baro     Rain since   Rain past  Vis(m), Cloud(base in m), Weather
  local        km/h                         9am  last   hr   10m    
Wed 14:30    W 19/ 30  11.7  2.5  1018.1    0.2   0.0   0.0   0.0   ----- 
Wed 15:00    S 11/ 22   9.5  6.2  1018.1    0.4   0.2   0.2   0.0   ----- 
Wed 15:30    W 17/ 30  11.4  2.9  1018.0    0.6   0.2   0.4   0.0   ----- 
Wed 16:00    W 19/ 35  12.8  2.4  1018.1    0.6   0.0   0.2   0.0   ----- 
Wed 16:30  WSW 20/ 32  13.0  0.7  1018.1    0.6   0.0   0.0   0.0   ----- 
Wed 17:00    W 17/ 30  11.5  2.3  1018.3    0.6   0.0   0.0   0.0   ----- 
Wed 17:30  WSW 15/ 26  11.5  2.8  1018.6    0.6   0.0   0.0   0.0   ----- 
Wed 18:00    W 19/ 30  10.8  3.4  1019.0    0.6   0.0   0.0   0.0   ----- 
Wed 18:30  WSW 11/ 19   9.5  3.3  1019.4    0.6   0.0   0.0   0.0   ----- 
Wed 19:00  WSW 11/ 17   9.0  3.8  1019.7    0.6   0.0   0.0   0.0   ----- 
Wed 19:30  WSW  7/ 13   8.4  3.8  1020.0    0.6   0.0   0.0   0.0   ----- 
Wed 20:00  WSW  6/  9   8.0  4.0  1020.3    0.6   0.0   0.0   0.0   ----- 

PORT PIRIE AERODROME AWS

Site: 021139
Alt: 12.0m
km of


  Time     Wind        Temp  DP   Baro     Rain since   Rain past  Vis(m), Cloud(base in m), Weather
  local        km/h                         9am  last   hr   10m    
Wed 14:30  SSW 28/ 43  16.3  1.2  1020.0    0.0   0.0   0.0   0.0   ----- 
Wed 15:00   SW 26/ 35  16.7  2.7  1019.9    0.0   0.0   0.0   0.0   ----- 
Wed 15:30  SSW 28/ 35  16.8  1.7  1019.7    0.0   0.0   0.0   0.0   ----- 
Wed 16:00  SSW 28/ 37  17.0  2.6  1019.9    0.0   0.0   0.0   0.0   ----- 
Wed 16:30  SSW 24/ 32  16.3  3.4  1020.1    0.0   0.0   0.0   0.0   ----- 
Wed 17:00   SW 22/ 28  15.7  3.8  1020.2    0.0   0.0   0.0   0.0   ----- 
Wed 17:30   SW 22/ 28  14.8  4.2  1020.3    0.0   0.0   0.0   0.0   ----- 
Wed 18:00  SSW 19/ 22  13.8  4.4  1020.7    0.0   0.0   0.0   0.0   ----- 
Wed 18:30    S 13/ 17  12.5  4.2  1021.0    0.0   0.0   0.0   0.0   ----- 
Wed 19:00    S  9/  9  11.6  4.1  1021.4    0.0   0.0   0.0   0.0   ----- 
Wed 19:30   SE  6/  7  11.3  4.1  1021.6    0.0   0.0   0.0   0.0   ----- 
Wed 20:00  ESE  7/  9  10.3  3.3  1021.9    0.0   0.0   0.0   0.0   ----- 

SNOWTOWN (RAYVILLE PARK)

Site: 021133
Alt: 109.1m
37km WNW of CLARE


  Time     Wind        Temp  DP   Baro     Rain since   Rain past  Vis(m), Cloud(base in m), Weather
  local        km/h                         9am  last   hr   10m    
Wed 14:30    W 24/ 32  14.7  1.6  1019.4    0.2   0.0   0.0   0.0   ----- 
Wed 15:00  WSW 24/ 32  16.1  1.8  1019.3    0.2   0.0   0.0   0.0   ----- 
Wed 15:30  WSW 28/ 37  15.4  1.2  1019.3    0.2   0.0   0.0   0.0   ----- 
Wed 16:00  WSW 30/ 37  15.8  2.2  1019.4    0.2   0.0   0.0   0.0   ----- 
Wed 16:30  WSW 28/ 35  15.0  3.2  1019.4    0.2   0.0   0.0   0.0   ----- 
Wed 17:00    W 30/ 39  14.2  3.9  1019.6    0.2   0.0   0.0   0.0   ----- 
Wed 17:30  WSW 22/ 30  13.5  3.8  1019.8    0.2   0.0   0.0   0.0   ----- 
Wed 18:00  WSW 15/ 20  11.9  3.9  1020.3    0.2   0.0   0.0   0.0   ----- 
Wed 18:30  WSW 13/ 17   9.1  3.9  1020.6    0.2   0.0   0.0   0.0   ----- 
Wed 19:00  WSW  9/ 11   8.0  3.8  1020.9    0.2   0.0   0.0   0.0   ----- 
Wed 19:30  WSW 11/ 13   5.9  2.7  1021.2    0.2   0.0   0.0   0.0   ----- 
Wed 20:00  WSW 13/ 15   5.5  3.3  1021.5    0.2   0.0   0.0   0.0   -----